Time;durP1;ratioP1;P1;durP2;ratioP2;P2;SDS_P1;SDS_P2;PMS_P1;PMS_P2;Temp;Humidity;BMP_temperature;BMP_pressure;BME280_temperature;BME280_humidity;BME280_pressure;Samples;Min_cycle;Max_cycle;Signal;HPM_P1;HPM_P2
2023/04/20 00:00:47;;;;;;;2.13;1.95;;;8.80;62.50;;;;;;5041209;28;20029;-44
2023/04/20 00:03:13;;;;;;;4.80;2.45;;;8.70;62.60;;;;;;5042366;28;20083;-43
2023/04/20 00:05:38;;;;;;;4.38;2.10;;;8.70;62.80;;;;;;5042088;28;20032;-43
2023/04/20 00:08:04;;;;;;;3.17;1.95;;;8.60;62.90;;;;;;5041769;28;20013;-43
2023/04/20 00:10:29;;;;;;;2.38;1.95;;;8.60;63.00;;;;;;5038846;28;20472;-43
2023/04/20 00:12:55;;;;;;;4.50;2.05;;;8.60;63.20;;;;;;5031630;28;20059;-43
2023/04/20 00:15:20;;;;;;;2.53;2.05;;;8.50;63.40;;;;;;5040744;28;20029;-43
2023/04/20 00:17:47;;;;;;;2.30;1.80;;;8.50;63.60;;;;;;5028279;28;20040;-43
2023/04/20 00:20:14;;;;;;;2.65;2.00;;;8.50;63.70;;;;;;5041847;28;20128;-44
2023/04/20 00:22:42;;;;;;;4.50;1.95;;;8.50;63.90;;;;;;5040491;28;20507;-43
2023/04/20 00:25:08;;;;;;;2.55;1.98;;;8.40;64.00;;;;;;5040521;28;20162;-43
2023/04/20 00:27:33;;;;;;;2.10;1.90;;;8.40;64.10;;;;;;5040759;28;20111;-42
2023/04/20 00:29:59;;;;;;;5.50;2.50;;;8.40;64.30;;;;;;5041978;28;20066;-43
2023/04/20 00:32:26;;;;;;;5.38;1.80;;;8.40;64.50;;;;;;5041950;28;20037;-43
2023/04/20 00:34:51;;;;;;;2.08;1.80;;;8.30;64.50;;;;;;5040916;28;20025;-42
2023/04/20 00:37:17;;;;;;;2.35;1.80;;;8.30;64.60;;;;;;5025197;28;20119;-43
2023/04/20 00:39:42;;;;;;;2.67;1.90;;;8.20;64.70;;;;;;5039352;28;20043;-43
2023/04/20 00:42:14;;;;;;;2.92;1.52;;;8.20;64.80;;;;;;5040463;28;20112;-43
2023/04/20 00:44:40;;;;;;;2.37;1.83;;;8.20;65.00;;;;;;5040157;28;20037;-43
2023/04/20 00:47:05;;;;;;;3.28;1.90;;;8.10;65.00;;;;;;5039977;28;20299;-43
2023/04/20 00:49:31;;;;;;;3.67;1.98;;;8.10;65.20;;;;;;5030369;28;20144;-42
2023/04/20 00:51:57;;;;;;;3.47;2.00;;;8.10;65.40;;;;;;5034552;28;20128;-43
2023/04/20 00:54:23;;;;;;;4.53;2.28;;;8.00;65.50;;;;;;5041178;28;20056;-43
2023/04/20 00:56:49;;;;;;;2.00;1.80;;;8.00;65.50;;;;;;5039326;28;20067;-42
2023/04/20 00:59:15;;;;;;;2.78;2.00;;;8.00;65.70;;;;;;5041978;28;20029;-42
2023/04/20 01:01:41;;;;;;;5.50;2.15;;;7.90;65.80;;;;;;5040701;28;20025;-42
2023/04/20 01:04:08;;;;;;;4.43;2.22;;;7.90;66.00;;;;;;5040249;28;20024;-44
2023/04/20 01:06:34;;;;;;;2.30;2.10;;;7.90;66.20;;;;;;5039369;28;20028;-43
2023/04/20 01:08:59;;;;;;;4.55;2.17;;;7.80;66.30;;;;;;5039986;28;20500;-43
2023/04/20 01:11:25;;;;;;;4.53;2.10;;;7.80;66.50;;;;;;5031595;28;20052;-42
2023/04/20 01:13:50;;;;;;;4.30;1.95;;;7.80;66.70;;;;;;5040472;28;20175;-41
2023/04/20 01:16:16;;;;;;;5.20;2.60;;;7.80;66.90;;;;;;5038599;28;20025;-42
2023/04/20 01:18:48;;;;;;;7.10;2.30;;;7.80;67.10;;;;;;5040162;28;20053;-43
2023/04/20 01:21:15;;;;;;;2.85;2.20;;;7.70;67.20;;;;;;5041212;28;20048;-42
2023/04/20 01:23:41;;;;;;;6.93;2.53;;;7.70;67.30;;;;;;5040219;28;20051;-43
2023/04/20 01:26:08;;;;;;;2.58;2.13;;;7.70;67.60;;;;;;5040417;28;20033;-42
2023/04/20 01:28:34;;;;;;;2.30;2.10;;;7.70;67.80;;;;;;5021385;28;20116;-43
2023/04/20 01:31:01;;;;;;;2.80;2.28;;;7.80;67.90;;;;;;5034395;28;20039;-43
2023/04/20 01:33:27;;;;;;;2.65;2.15;;;7.80;68.10;;;;;;5041270;28;20043;-43
2023/04/20 01:35:53;;;;;;;6.63;2.50;;;7.90;68.20;;;;;;5040006;28;20028;-43
2023/04/20 01:38:20;;;;;;;4.18;2.80;;;7.90;68.60;;;;;;5040305;28;20033;-42
2023/04/20 01:40:45;;;;;;;3.55;2.25;;;8.00;69.00;;;;;;5040159;28;20025;-43
2023/04/20 01:43:11;;;;;;;4.70;2.53;;;8.10;69.20;;;;;;5040820;28;20453;-42
2023/04/20 01:45:36;;;;;;;4.63;2.00;;;8.10;69.20;;;;;;5039785;28;20025;-43
2023/04/20 01:48:02;;;;;;;4.38;2.45;;;8.20;69.50;;;;;;5039789;28;20040;-42
2023/04/20 01:50:28;;;;;;;2.30;2.10;;;8.20;69.90;;;;;;5039903;28;20563;-43
2023/04/20 01:52:53;;;;;;;2.63;1.90;;;8.20;70.30;;;;;;5039266;28;20025;-42
2023/04/20 01:55:19;;;;;;;2.35;2.15;;;8.30;70.90;;;;;;5024248;28;20092;-43
2023/04/20 01:57:44;;;;;;;4.40;2.47;;;8.30;71.10;;;;;;5039308;28;20079;-43
2023/04/20 02:00:18;;;;;;;5.32;2.60;;;8.30;72.30;;;;;;5039419;28;20060;-43
2023/04/20 02:02:44;;;;;;;4.22;2.65;;;8.40;72.00;;;;;;5039617;28;20044;-43
2023/04/20 02:05:10;;;;;;;3.55;2.60;;;8.40;72.50;;;;;;5039176;28;20127;-42
2023/04/20 02:07:35;;;;;;;3.38;2.38;;;8.40;72.90;;;;;;5039580;28;20383;-42
2023/04/20 02:10:02;;;;;;;4.75;2.70;;;8.30;72.80;;;;;;5040602;28;20025;-43
2023/04/20 02:12:27;;;;;;;5.20;2.90;;;8.40;73.70;;;;;;5041177;28;20028;-43
2023/04/20 02:14:53;;;;;;;3.83;3.42;;;8.30;73.80;;;;;;5043878;28;20029;-43
2023/04/20 02:17:18;;;;;;;3.55;2.60;;;8.30;73.80;;;;;;5044788;28;20404;-42
2023/04/20 02:19:45;;;;;;;3.13;2.10;;;8.30;74.10;;;;;;5038139;28;20846;-43
2023/04/20 02:22:11;;;;;;;2.70;2.10;;;8.30;74.20;;;;;;5033655;28;20117;-42
2023/04/20 02:24:36;;;;;;;4.57;2.28;;;8.30;74.60;;;;;;5042927;28;20127;-42
2023/04/20 02:27:02;;;;;;;3.88;2.60;;;8.20;74.50;;;;;;5043038;28;20021;-42
2023/04/20 02:29:28;;;;;;;4.97;2.78;;;8.20;75.30;;;;;;5043731;28;20048;-42
2023/04/20 02:31:53;;;;;;;4.93;2.72;;;8.20;75.60;;;;;;5043457;28;20028;-43
2023/04/20 02:34:19;;;;;;;5.47;2.70;;;8.30;76.10;;;;;;5042936;28;20131;-44
2023/04/20 02:36:45;;;;;;;2.55;2.30;;;8.30;75.70;;;;;;5044066;28;20017;-42
2023/04/20 02:39:10;;;;;;;3.70;2.13;;;8.40;75.70;;;;;;5043633;28;20155;-43
2023/04/20 02:41:36;;;;;;;3.40;2.05;;;8.40;75.70;;;;;;5037336;28;20754;-42
2023/04/20 02:44:01;;;;;;;3.13;2.47;;;8.40;75.70;;;;;;5041968;28;20583;-43
2023/04/20 02:46:27;;;;;;;3.08;2.25;;;8.50;75.70;;;;;;5043849;28;20033;-42
2023/04/20 02:48:54;;;;;;;2.70;2.15;;;8.50;75.70;;;;;;5042198;28;20065;-43
2023/04/20 02:51:19;;;;;;;3.97;2.50;;;8.60;75.90;;;;;;5044549;28;20044;-42
2023/04/20 02:53:45;;;;;;;3.25;2.40;;;8.60;76.20;;;;;;5043686;28;20758;-42
2023/04/20 02:56:10;;;;;;;3.92;2.63;;;8.60;76.30;;;;;;5042725;28;20381;-43
2023/04/20 02:58:36;;;;;;;2.08;1.90;;;8.60;76.30;;;;;;5040249;28;20860;-42
2023/04/20 03:01:03;;;;;;;3.72;2.28;;;8.70;76.30;;;;;;5040727;28;20108;-42
2023/04/20 03:03:29;;;;;;;2.55;2.22;;;8.70;76.60;;;;;;5040951;28;20154;-42
2023/04/20 03:05:55;;;;;;;4.20;2.58;;;8.80;76.70;;;;;;5028937;28;20029;-43
2023/04/20 03:08:21;;;;;;;3.97;2.55;;;8.80;76.70;;;;;;5027667;28;20044;-43
2023/04/20 03:10:46;;;;;;;3.78;2.35;;;8.80;77.10;;;;;;5027137;28;20033;-42
2023/04/20 03:13:12;;;;;;;3.92;2.83;;;8.80;77.20;;;;;;5042488;28;20025;-42
2023/04/20 03:15:37;;;;;;;6.35;2.72;;;8.80;77.70;;;;;;5042735;28;20028;-41
2023/04/20 03:18:03;;;;;;;4.63;2.88;;;8.90;77.80;;;;;;5042825;28;20044;-42
2023/04/20 03:20:29;;;;;;;4.47;2.70;;;8.90;78.30;;;;;;5041638;28;20036;-42
2023/04/20 03:22:55;;;;;;;4.10;2.70;;;8.90;78.40;;;;;;5025546;28;20029;-44
2023/04/20 03:25:21;;;;;;;4.75;2.70;;;8.90;78.30;;;;;;5042597;28;20180;-43
2023/04/20 03:27:47;;;;;;;3.35;2.60;;;8.90;78.30;;;;;;5042949;28;20352;-43
2023/04/20 03:30:13;;;;;;;5.20;2.33;;;8.90;78.40;;;;;;5040879;28;20033;-42
2023/04/20 03:32:40;;;;;;;3.35;2.53;;;9.00;78.50;;;;;;5042335;28;20021;-43
2023/04/20 03:35:07;;;;;;;3.90;2.55;;;8.90;78.70;;;;;;5043026;28;20211;-43
2023/04/20 03:37:33;;;;;;;4.38;2.72;;;8.90;78.70;;;;;;5043043;28;20076;-42
2023/04/20 03:39:59;;;;;;;4.68;2.85;;;9.00;79.30;;;;;;5042754;28;20506;-42
2023/04/20 03:42:24;;;;;;;3.95;2.67;;;8.90;79.20;;;;;;5041719;28;20051;-43
2023/04/20 03:44:50;;;;;;;6.60;2.53;;;8.90;79.10;;;;;;5031988;28;20095;-43
2023/04/20 03:47:16;;;;;;;4.50;2.83;;;9.00;79.40;;;;;;5043089;28;20513;-43
2023/04/20 03:49:41;;;;;;;5.00;3.10;;;9.00;80.00;;;;;;5042660;28;20400;-43
2023/04/20 03:52:07;;;;;;;3.80;2.47;;;9.00;79.60;;;;;;5042259;28;20017;-43
2023/04/20 03:54:32;;;;;;;5.18;2.60;;;9.00;80.00;;;;;;5041588;28;20024;-42
2023/04/20 03:56:58;;;;;;;4.85;2.90;;;9.00;80.10;;;;;;5042055;28;20024;-43
2023/04/20 03:59:23;;;;;;;5.32;2.85;;;8.90;80.70;;;;;;5041704;28;20032;-42
2023/04/20 04:01:49;;;;;;;3.55;2.67;;;8.90;80.80;;;;;;5041491;28;20125;-42
2023/04/20 04:04:14;;;;;;;3.60;2.78;;;9.00;80.80;;;;;;5031792;28;20061;-41
2023/04/20 04:06:40;;;;;;;4.03;3.13;;;8.90;81.00;;;;;;5039705;28;20419;-42
2023/04/20 04:09:05;;;;;;;3.70;2.60;;;9.00;81.40;;;;;;5041723;28;20879;-42
2023/04/20 04:11:31;;;;;;;5.03;2.75;;;8.90;81.50;;;;;;5041626;28;20144;-43
2023/04/20 04:13:58;;;;;;;5.57;3.13;;;8.90;81.40;;;;;;5028062;28;20052;-43
2023/04/20 04:16:23;;;;;;;4.05;2.42;;;9.00;82.00;;;;;;5034405;28;20107;-43
2023/04/20 04:18:49;;;;;;;6.07;2.88;;;9.00;81.90;;;;;;5041597;28;20115;-43
2023/04/20 04:21:14;;;;;;;4.32;2.40;;;8.90;81.80;;;;;;5040568;28;20021;-43
2023/04/20 04:23:41;;;;;;;4.70;2.83;;;8.90;81.80;;;;;;5041192;28;20037;-43
2023/04/20 04:26:07;;;;;;;3.50;2.63;;;9.00;81.90;;;;;;5028619;28;20119;-42
2023/04/20 04:28:33;;;;;;;4.72;2.47;;;8.90;82.00;;;;;;5041192;28;20148;-43
2023/04/20 04:31:04;;;;;;;4.50;3.05;;;8.90;82.10;;;;;;5041412;28;20037;-43
2023/04/20 04:33:33;;;;;;;6.70;2.55;;;8.90;82.50;;;;;;5030926;28;20083;-42
2023/04/20 04:36:00;;;;;;;6.25;2.83;;;9.00;82.40;;;;;;5039657;28;20051;-42
2023/04/20 04:38:26;;;;;;;4.78;2.65;;;8.90;83.30;;;;;;5041338;28;20045;-43
2023/04/20 04:40:52;;;;;;;4.60;2.72;;;8.90;82.80;;;;;;5040141;28;20029;-43
2023/04/20 04:43:18;;;;;;;4.82;2.25;;;9.00;83.00;;;;;;5041820;28;20036;-43
2023/04/20 04:45:44;;;;;;;3.58;2.45;;;8.90;82.90;;;;;;5026209;28;20040;-43
2023/04/20 04:48:16;;;;;;;3.45;2.60;;;9.00;82.90;;;;;;5039890;28;20401;-44
2023/04/20 04:50:42;;;;;;;3.42;2.53;;;9.00;83.10;;;;;;5040062;28;20048;-45
2023/04/20 04:53:07;;;;;;;3.80;2.53;;;9.00;83.10;;;;;;5033699;28;20026;-43
2023/04/20 04:55:33;;;;;;;4.65;2.60;;;9.00;83.00;;;;;;5041379;28;20140;-43
2023/04/20 04:57:58;;;;;;;2.88;2.35;;;9.10;83.10;;;;;;5041414;28;20029;-43
2023/04/20 05:00:24;;;;;;;3.05;2.30;;;9.00;83.20;;;;;;5040324;28;20036;-43
2023/04/20 05:02:51;;;;;;;3.70;2.60;;;9.00;83.50;;;;;;5037031;28;20033;-41
2023/04/20 05:05:18;;;;;;;3.50;2.40;;;9.10;84.00;;;;;;5036701;28;20037;-42
2023/04/20 05:07:43;;;;;;;3.15;2.83;;;9.10;83.70;;;;;;5031374;28;20033;-43
2023/04/20 05:10:09;;;;;;;3.25;2.40;;;9.10;84.30;;;;;;5039949;28;20868;-43
2023/04/20 05:12:35;;;;;;;7.88;2.90;;;9.10;83.90;;;;;;5041694;28;20056;-43
2023/04/20 05:15:00;;;;;;;3.50;2.63;;;9.10;83.90;;;;;;5038160;28;20039;-43
2023/04/20 05:17:26;;;;;;;3.97;2.50;;;9.10;84.00;;;;;;5036107;28;20098;-42
2023/04/20 05:19:51;;;;;;;3.25;2.10;;;9.20;84.00;;;;;;5040578;28;20463;-42
2023/04/20 05:22:17;;;;;;;3.78;2.70;;;9.20;84.00;;;;;;5040668;28;20047;-43
2023/04/20 05:24:43;;;;;;;3.28;2.50;;;9.20;84.10;;;;;;5040142;28;20768;-43
2023/04/20 05:27:10;;;;;;;2.63;2.30;;;9.20;84.30;;;;;;5036273;28;20472;-43
2023/04/20 05:29:35;;;;;;;3.47;2.35;;;9.20;84.30;;;;;;5039153;28;20961;-44
2023/04/20 05:32:01;;;;;;;3.60;2.67;;;9.30;84.60;;;;;;5040091;28;20031;-42
2023/04/20 05:34:26;;;;;;;4.38;2.65;;;9.30;84.60;;;;;;5041242;28;20054;-42
2023/04/20 05:36:53;;;;;;;4.07;2.20;;;9.30;84.70;;;;;;5026320;28;20091;-41
2023/04/20 05:39:19;;;;;;;4.22;2.63;;;9.40;84.70;;;;;;5036289;28;20033;-43
2023/04/20 05:41:46;;;;;;;4.05;2.58;;;9.40;84.80;;;;;;5040913;28;20116;-43
2023/04/20 05:44:21;;;;;;;4.30;2.83;;;9.40;84.90;;;;;;5040204;28;20036;-43
2023/04/20 05:46:47;;;;;;;3.67;2.72;;;9.40;85.10;;;;;;5038603;28;20029;-42
2023/04/20 05:49:12;;;;;;;3.25;2.47;;;9.40;85.00;;;;;;5039872;28;20107;-42
2023/04/20 05:51:41;;;;;;;3.08;2.45;;;9.40;85.20;;;;;;5040384;28;20029;-42
2023/04/20 05:54:06;;;;;;;4.18;2.28;;;9.50;85.20;;;;;;5039647;28;20892;-43
2023/04/20 05:56:32;;;;;;;3.80;2.78;;;9.50;85.30;;;;;;5040969;28;20109;-43
2023/04/20 05:58:58;;;;;;;3.60;2.90;;;9.50;85.50;;;;;;5039908;28;20484;-43
2023/04/20 06:01:24;;;;;;;3.88;2.80;;;9.50;85.50;;;;;;5040524;28;20040;-43
2023/04/20 06:03:50;;;;;;;4.28;3.03;;;9.60;85.70;;;;;;5037518;28;20029;-42
2023/04/20 06:06:15;;;;;;;3.75;2.72;;;9.60;85.70;;;;;;5034681;28;20059;-42
2023/04/20 06:08:41;;;;;;;4.53;2.97;;;9.70;85.70;;;;;;5020835;28;20076;-43
2023/04/20 06:11:10;;;;;;;5.13;3.15;;;9.70;85.80;;;;;;5040404;28;20033;-42
2023/04/20 06:13:35;;;;;;;6.55;3.10;;;9.70;85.80;;;;;;5037500;28;20439;-42
2023/04/20 06:16:01;;;;;;;5.53;3.08;;;9.80;86.00;;;;;;5038930;28;20037;-43
2023/04/20 06:18:27;;;;;;;5.18;3.40;;;9.80;86.00;;;;;;5040630;28;20052;-42
2023/04/20 06:20:53;;;;;;;5.53;3.25;;;9.80;86.10;;;;;;5039777;28;20040;-43
2023/04/20 06:23:18;;;;;;;3.65;2.92;;;9.80;86.30;;;;;;5040529;28;20037;-43
2023/04/20 06:25:44;;;;;;;3.75;3.00;;;9.80;86.90;;;;;;5037613;28;20033;-43
2023/04/20 06:28:12;;;;;;;3.53;2.72;;;9.90;86.40;;;;;;5035996;28;20026;-44
2023/04/20 06:30:38;;;;;;;4.43;3.15;;;9.80;86.40;;;;;;5034266;28;20029;-42
2023/04/20 06:33:03;;;;;;;6.05;3.70;;;9.80;86.70;;;;;;5027808;28;20583;-43
2023/04/20 06:35:29;;;;;;;4.00;3.20;;;9.80;87.00;;;;;;5035725;28;20374;-43
2023/04/20 06:37:56;;;;;;;6.43;3.90;;;9.70;87.20;;;;;;5038712;28;20017;-43
2023/04/20 06:40:26;;;;;;;5.82;3.70;;;9.70;87.30;;;;;;5039081;28;20017;-44
2023/04/20 06:42:51;;;;;;;4.30;3.20;;;9.70;87.50;;;;;;5039815;28;20029;-43
2023/04/20 06:45:17;;;;;;;6.32;4.10;;;9.70;87.60;;;;;;5039863;28;20028;-43
2023/04/20 06:47:42;;;;;;;7.63;4.28;;;9.80;87.60;;;;;;5038741;28;20025;-42
2023/04/20 06:50:08;;;;;;;8.13;4.22;;;9.80;87.60;;;;;;5039510;28;20049;-43
2023/04/20 06:52:38;;;;;;;5.80;4.47;;;9.90;87.70;;;;;;5040139;28;20021;-44
2023/04/20 06:55:04;;;;;;;6.88;4.25;;;10.00;87.60;;;;;;5038900;28;20544;-43
2023/04/20 06:57:29;;;;;;;6.07;4.18;;;10.10;87.30;;;;;;5040575;28;20135;-43
2023/04/20 06:59:55;;;;;;;7.63;4.85;;;10.20;87.40;;;;;;5042918;28;20033;-43
2023/04/20 07:02:21;;;;;;;7.60;4.45;;;10.20;87.40;;;;;;5043200;28;20662;-43
2023/04/20 07:04:46;;;;;;;4.50;4.03;;;10.20;87.50;;;;;;5043198;28;20044;-43
2023/04/20 07:07:12;;;;;;;7.60;3.65;;;10.20;87.60;;;;;;5043454;28;20021;-43
2023/04/20 07:09:49;;;;;;;4.68;4.28;;;10.10;87.70;;;;;;5042758;28;20072;-42
2023/04/20 07:12:15;;;;;;;6.72;4.45;;;10.00;88.10;;;;;;5043131;28;20051;-43
2023/04/20 07:14:40;;;;;;;5.32;4.50;;;10.10;88.50;;;;;;5043502;28;20142;-43
2023/04/20 07:17:06;;;;;;;5.40;4.25;;;10.00;88.80;;;;;;5042564;28;20451;-43
2023/04/20 07:19:32;;;;;;;5.47;3.90;;;10.10;89.00;;;;;;5043450;28;20028;-43
2023/04/20 07:21:57;;;;;;;5.00;3.80;;;10.00;89.00;;;;;;5042552;28;20051;-42
2023/04/20 07:24:23;;;;;;;5.43;4.05;;;10.10;89.20;;;;;;5043082;28;20562;-43
2023/04/20 07:26:48;;;;;;;8.38;4.38;;;10.10;89.40;;;;;;5042463;28;20060;-44
2023/04/20 07:29:14;;;;;;;7.00;4.10;;;10.20;89.50;;;;;;5042260;28;20373;-43
2023/04/20 07:31:39;;;;;;;6.07;4.57;;;10.20;89.60;;;;;;5042458;28;20021;-42
2023/04/20 07:34:05;;;;;;;5.25;3.88;;;10.20;89.70;;;;;;5042142;28;20025;-44
2023/04/20 07:36:31;;;;;;;5.60;4.18;;;10.20;89.80;;;;;;5041631;28;20037;-43
2023/04/20 07:38:57;;;;;;;5.40;4.78;;;10.10;89.90;;;;;;5041844;28;20025;-44
2023/04/20 07:41:22;;;;;;;8.65;4.88;;;10.20;90.00;;;;;;5042601;28;20470;-44
2023/04/20 07:43:48;;;;;;;6.20;4.78;;;10.10;90.10;;;;;;5040979;28;20040;-42
2023/04/20 07:46:21;;;;;;;6.85;5.07;;;10.00;90.30;;;;;;5042527;28;20021;-43
2023/04/20 07:48:47;;;;;;;4.75;4.22;;;10.00;90.40;;;;;;5042192;28;20496;-43
2023/04/20 07:51:12;;;;;;;5.45;4.28;;;10.10;90.50;;;;;;5042023;28;20048;-43
2023/04/20 07:53:38;;;;;;;5.80;4.20;;;10.20;90.50;;;;;;5042433;28;20020;-43
2023/04/20 07:56:03;;;;;;;7.22;4.82;;;10.20;90.40;;;;;;5042982;28;20064;-43
2023/04/20 07:58:29;;;;;;;6.60;4.72;;;10.40;90.40;;;;;;5041239;28;20049;-43
2023/04/20 08:00:55;;;;;;;5.00;4.50;;;10.40;90.40;;;;;;5042396;28;20794;-44
2023/04/20 08:03:20;;;;;;;7.47;4.93;;;10.40;90.40;;;;;;5041537;28;20135;-44
2023/04/20 08:05:46;;;;;;;4.78;4.03;;;10.40;90.40;;;;;;5041792;28;20044;-43
2023/04/20 08:08:11;;;;;;;5.15;4.65;;;10.40;90.50;;;;;;5042129;28;20036;-43
2023/04/20 08:10:37;;;;;;;5.47;4.38;;;10.50;90.50;;;;;;5041943;28;20037;-42
2023/04/20 08:13:06;;;;;;;5.32;4.80;;;10.50;90.50;;;;;;5040701;28;20017;-43
2023/04/20 08:15:31;;;;;;;7.50;4.75;;;10.60;90.40;;;;;;5039838;28;20384;-44
2023/04/20 08:17:57;;;;;;;5.85;4.65;;;10.50;90.40;;;;;;5039289;28;20021;-43
2023/04/20 08:20:22;;;;;;;5.43;4.40;;;10.60;90.50;;;;;;5040623;28;20048;-44
2023/04/20 08:22:49;;;;;;;5.00;3.65;;;10.50;90.60;;;;;;5041821;28;20028;-43
2023/04/20 08:25:15;;;;;;;5.47;4.85;;;10.50;90.70;;;;;;5039916;28;20037;-43
2023/04/20 08:27:43;;;;;;;4.90;4.07;;;10.60;90.70;;;;;;5040368;28;20101;-44
2023/04/20 08:30:15;;;;;;;7.55;4.97;;;10.60;90.70;;;;;;5040029;28;20037;-42
2023/04/20 08:32:41;;;;;;;5.47;4.13;;;10.60;90.70;;;;;;5040229;28;20025;-44
2023/04/20 08:35:07;;;;;;;6.78;4.10;;;10.70;90.70;;;;;;5039857;28;20039;-43
2023/04/20 08:37:37;;;;;;;9.25;4.88;;;10.70;90.80;;;;;;5041106;28;20036;-43
2023/04/20 08:40:03;;;;;;;7.32;5.00;;;10.70;90.80;;;;;;5041243;28;20063;-43
2023/04/20 08:42:29;;;;;;;6.03;4.95;;;10.70;90.80;;;;;;5042106;28;20108;-43
2023/04/20 08:44:56;;;;;;;5.38;4.38;;;10.70;90.80;;;;;;5041135;28;20090;-44
2023/04/20 08:47:22;;;;;;;5.22;4.70;;;10.80;90.90;;;;;;5040647;28;20033;-44
2023/04/20 08:49:52;;;;;;;7.80;4.50;;;10.80;90.90;;;;;;5040665;28;20110;-43
2023/04/20 08:52:17;;;;;;;7.28;4.68;;;10.90;90.80;;;;;;5041013;28;20024;-43
2023/04/20 08:54:43;;;;;;;8.95;6.43;;;10.90;90.80;;;;;;5040088;28;20017;-44
2023/04/20 08:57:09;;;;;;;6.45;5.50;;;10.90;90.80;;;;;;5041818;28;20346;-42
2023/04/20 08:59:36;;;;;;;7.53;5.63;;;10.80;90.90;;;;;;5041056;28;20131;-42
2023/04/20 09:02:12;;;;;;;6.22;5.28;;;10.80;91.00;;;;;;5041148;28;20017;-42
2023/04/20 09:04:39;;;;;;;5.10;4.53;;;10.80;91.10;;;;;;5042348;28;20098;-43
2023/04/20 09:07:06;;;;;;;6.80;4.68;;;10.80;91.20;;;;;;5041185;28;20020;-42
2023/04/20 09:09:32;;;;;;;6.43;4.95;;;10.80;91.30;;;;;;5040594;28;20045;-43
2023/04/20 09:12:01;;;;;;;5.93;4.50;;;10.90;91.30;;;;;;5041482;28;20036;-45
2023/04/20 09:14:27;;;;;;;7.32;4.32;;;11.00;91.30;;;;;;5041414;28;20025;-43
2023/04/20 09:17:01;;;;;;;7.28;4.80;;;11.00;91.30;;;;;;5040971;28;20029;-44
2023/04/20 09:19:33;;;;;;;11.35;5.25;;;11.00;91.30;;;;;;5041624;28;20402;-43
2023/04/20 09:22:02;;;;;;;6.65;5.00;;;10.90;91.40;;;;;;5039945;28;20048;-43
2023/04/20 09:24:35;;;;;;;7.10;4.68;;;10.80;91.60;;;;;;5022362;28;20071;-43
2023/04/20 09:27:13;;;;;;;4.80;4.32;;;10.80;91.60;;;;;;5036818;28;20063;-43
2023/04/20 09:29:38;;;;;;;7.43;4.95;;;10.80;91.60;;;;;;5020590;28;20115;-43
2023/04/20 09:32:04;;;;;;;6.38;5.10;;;10.90;91.50;;;;;;5035228;28;20029;-42
2023/04/20 09:34:50;;;;;;;5.22;4.15;;;10.90;91.60;;;;;;5041358;28;20032;-43
2023/04/20 09:37:16;;;;;;;6.53;4.30;;;11.00;91.60;;;;;;5040115;28;20106;-43
2023/04/20 09:39:43;;;;;;;4.88;4.40;;;11.00;91.40;;;;;;5040661;28;20064;-43
2023/04/20 09:42:12;;;;;;;7.30;4.30;;;11.00;91.40;;;;;;5040681;28;20104;-43
2023/04/20 09:44:39;;;;;;;6.03;4.40;;;10.90;91.60;;;;;;5040381;28;20043;-43
2023/04/20 09:47:06;;;;;;;4.95;3.70;;;10.90;91.70;;;;;;5040950;28;20045;-44
2023/04/20 09:49:38;;;;;;;4.18;3.67;;;10.90;91.80;;;;;;5040166;28;20049;-42
2023/04/20 09:52:04;;;;;;;6.47;4.07;;;10.80;91.80;;;;;;5039959;28;20021;-42
2023/04/20 09:54:30;;;;;;;4.93;4.43;;;10.70;91.80;;;;;;5039809;28;20389;-43
2023/04/20 09:56:58;;;;;;;5.25;4.60;;;10.70;92.00;;;;;;5039018;28;20065;-44
2023/04/20 09:59:26;;;;;;;5.13;4.63;;;10.70;92.10;;;;;;5039682;28;20021;-43
2023/04/20 10:01:52;;;;;;;6.82;4.18;;;10.60;92.20;;;;;;5039347;28;20025;-43
2023/04/20 10:04:17;;;;;;;4.88;4.38;;;10.60;92.30;;;;;;5039076;28;20025;-43
2023/04/20 10:06:55;;;;;;;5.93;4.38;;;10.70;92.30;;;;;;5040568;28;20044;-43
2023/04/20 10:09:24;;;;;;;4.60;3.75;;;10.90;92.20;;;;;;5038199;28;20044;-43
2023/04/20 10:11:50;;;;;;;4.53;3.78;;;11.10;91.90;;;;;;5039828;28;20025;-44
2023/04/20 10:14:24;;;;;;;6.15;3.70;;;11.20;91.80;;;;;;5040751;28;20056;-43
2023/04/20 10:17:10;;;;;;;6.43;4.30;;;11.30;91.60;;;;;;5040599;28;20029;-44
2023/04/20 10:19:37;;;;;;;5.55;3.97;;;11.30;91.50;;;;;;5036809;28;20027;-44
2023/04/20 10:22:03;;;;;;;6.45;4.20;;;11.40;91.40;;;;;;5039855;28;20529;-43
2023/04/20 10:24:29;;;;;;;5.53;4.40;;;11.50;91.30;;;;;;5040159;28;20550;-42
2023/04/20 10:26:55;;;;;;;4.75;4.18;;;11.60;91.30;;;;;;5040095;28;20028;-43
2023/04/20 10:29:25;;;;;;;6.32;4.03;;;11.70;91.20;;;;;;5040301;28;20119;-43
2023/04/20 10:31:52;;;;;;;5.40;3.67;;;11.80;91.00;;;;;;5040047;28;20090;-44
2023/04/20 10:34:32;;;;;;;4.30;3.80;;;11.80;90.70;;;;;;5042226;28;20552;-44
2023/04/20 10:37:11;;;;;;;3.70;3.40;;;12.00;90.40;;;;;;5024118;28;20087;-43
2023/04/20 10:39:47;;;;;;;4.88;3.70;;;12.00;90.00;;;;;;5040441;28;20040;-44
2023/04/20 10:42:13;;;;;;;4.85;3.22;;;12.10;90.00;;;;;;5024716;28;20079;-43
2023/04/20 10:44:48;;;;;;;5.93;3.85;;;12.10;89.40;;;;;;5039129;28;20132;-43
2023/04/20 10:47:14;;;;;;;3.22;2.90;;;12.20;89.40;;;;;;5023787;28;20436;-44
2023/04/20 10:49:40;;;;;;;4.18;3.42;;;12.20;89.20;;;;;;5038035;28;20550;-43
2023/04/20 10:52:05;;;;;;;4.60;3.60;;;12.30;89.10;;;;;;5044277;28;20109;-44
2023/04/20 10:54:40;;;;;;;5.13;3.47;;;12.30;89.10;;;;;;5043345;28;20083;-43
2023/04/20 10:57:06;;;;;;;5.35;3.60;;;12.40;88.90;;;;;;5044948;28;20412;-43
2023/04/20 10:59:37;;;;;;;5.07;3.40;;;12.40;88.50;;;;;;5044084;28;20029;-43
2023/04/20 11:02:07;;;;;;;4.00;3.60;;;12.30;88.20;;;;;;5042582;28;20025;-44
2023/04/20 11:04:33;;;;;;;6.25;3.63;;;12.30;88.10;;;;;;5042699;28;20074;-43
2023/04/20 11:07:07;;;;;;;5.32;4.07;;;12.30;88.20;;;;;;5042632;28;20044;-44
2023/04/20 11:09:33;;;;;;;4.55;3.50;;;12.50;87.50;;;;;;5042221;28;20044;-43
2023/04/20 11:12:02;;;;;;;4.63;3.75;;;12.60;87.00;;;;;;5042961;28;20107;-44
2023/04/20 11:14:29;;;;;;;4.40;4.00;;;12.60;86.30;;;;;;5042079;28;20025;-43
2023/04/20 11:16:54;;;;;;;4.45;3.85;;;12.60;86.30;;;;;;5042863;28;20128;-44
2023/04/20 11:19:26;;;;;;;4.70;3.42;;;12.50;86.10;;;;;;5043567;28;20797;-44
2023/04/20 11:21:51;;;;;;;4.70;3.88;;;12.40;86.40;;;;;;5042706;28;20025;-43
2023/04/20 11:24:18;;;;;;;3.80;3.25;;;12.30;86.40;;;;;;5043367;28;20106;-43
2023/04/20 11:26:44;;;;;;;5.10;3.90;;;12.20;86.30;;;;;;5043139;28;20067;-44
2023/04/20 11:29:10;;;;;;;5.03;3.92;;;12.10;86.60;;;;;;5042071;28;20064;-44
2023/04/20 11:31:36;;;;;;;5.72;3.70;;;12.10;86.80;;;;;;5042259;28;20021;-43
2023/04/20 11:34:03;;;;;;;5.90;3.22;;;12.10;86.90;;;;;;5043620;28;20037;-43
2023/04/20 11:36:29;;;;;;;5.25;4.00;;;12.10;86.90;;;;;;5042479;28;20021;-43
2023/04/20 11:39:05;;;;;;;4.38;3.78;;;12.00;86.60;;;;;;5043235;28;20036;-43
2023/04/20 11:41:33;;;;;;;5.75;4.13;;;12.00;86.30;;;;;;5042950;28;20033;-44
2023/04/20 11:43:59;;;;;;;6.97;4.22;;;12.00;86.30;;;;;;5042605;28;20033;-44
2023/04/20 11:46:24;;;;;;;6.25;4.28;;;12.00;86.40;;;;;;5041731;28;20040;-44
2023/04/20 11:48:50;;;;;;;4.05;3.60;;;12.00;86.50;;;;;;5042636;28;20056;-43
2023/04/20 11:51:15;;;;;;;5.25;3.70;;;12.20;86.80;;;;;;5042193;28;20017;-43
2023/04/20 11:53:41;;;;;;;4.18;3.78;;;12.20;86.90;;;;;;5042444;28;20620;-44
2023/04/20 11:56:07;;;;;;;4.80;3.60;;;12.30;86.70;;;;;;5042724;28;20025;-43
2023/04/20 11:58:33;;;;;;;5.13;4.18;;;12.30;86.70;;;;;;5041269;28;20020;-44
2023/04/20 12:01:08;;;;;;;6.00;5.05;;;12.30;86.80;;;;;;5042558;28;20025;-43
2023/04/20 12:03:33;;;;;;;5.22;4.57;;;12.30;86.80;;;;;;5031874;28;20021;-43
2023/04/20 12:05:59;;;;;;;5.10;3.95;;;12.30;87.00;;;;;;5042883;28;20534;-44
2023/04/20 12:08:25;;;;;;;5.38;4.88;;;12.20;87.00;;;;;;5042257;28;20031;-44
2023/04/20 12:10:50;;;;;;;4.22;3.83;;;12.10;86.80;;;;;;5041966;28;20033;-43
2023/04/20 12:13:16;;;;;;;5.20;4.05;;;12.10;87.20;;;;;;5041142;28;20115;-43
2023/04/20 12:15:41;;;;;;;4.78;3.80;;;12.00;87.70;;;;;;5041379;28;20031;-43
2023/04/20 12:18:07;;;;;;;6.00;4.75;;;11.90;87.90;;;;;;5040196;28;20037;-42
2023/04/20 12:20:32;;;;;;;7.05;4.80;;;12.00;88.30;;;;;;5041661;28;20127;-44
2023/04/20 12:22:58;;;;;;;6.72;5.22;;;12.00;88.20;;;;;;5040922;28;20478;-43
2023/04/20 12:25:26;;;;;;;4.85;4.13;;;12.10;88.00;;;;;;5040780;28;20029;-44
2023/04/20 12:27:55;;;;;;;6.45;4.68;;;12.10;87.70;;;;;;5041905;28;20063;-44
2023/04/20 12:30:21;;;;;;;7.60;4.70;;;12.20;87.40;;;;;;5042110;28;20044;-44
2023/04/20 12:32:47;;;;;;;5.28;4.72;;;12.10;87.20;;;;;;5041408;28;20421;-43
2023/04/20 12:35:16;;;;;;;5.30;4.75;;;12.00;87.10;;;;;;5042378;28;20032;-44
2023/04/20 12:37:41;;;;;;;6.05;5.00;;;12.00;87.30;;;;;;5041487;28;20083;-44
2023/04/20 12:40:07;;;;;;;6.20;5.32;;;11.90;87.30;;;;;;5040760;28;20025;-44
2023/04/20 12:42:33;;;;;;;6.15;4.60;;;11.90;87.50;;;;;;5041066;28;20797;-44
2023/04/20 12:44:58;;;;;;;6.57;4.22;;;11.80;87.70;;;;;;5041737;28;20024;-44
2023/04/20 12:47:24;;;;;;;5.20;4.68;;;11.90;87.90;;;;;;5041235;28;20023;-44
2023/04/20 12:49:49;;;;;;;5.15;4.65;;;11.90;88.20;;;;;;5041405;28;20565;-42